sensor_id;sensor_type;location;lat;lon;timestamp;pressure;altitude;pressure_sealevel;temperature;humidity
69411;BME280;56604;48.652;9.194;2022-07-29T00:00:09;96189.59;;;19.05;82.35
69411;BME280;56604;48.652;9.194;2022-07-29T00:02:34;96187.59;;;19.10;82.55
69411;BME280;56604;48.652;9.194;2022-07-29T00:05:00;96182.56;;;19.09;82.40
69411;BME280;56604;48.652;9.194;2022-07-29T00:07:25;96179.75;;;19.14;82.17
69411;BME280;56604;48.652;9.194;2022-07-29T00:09:51;96184.00;;;19.15;81.77
69411;BME280;56604;48.652;9.194;2022-07-29T00:12:16;96171.78;;;19.14;81.81
69411;BME280;56604;48.652;9.194;2022-07-29T00:14:42;96171.94;;;19.18;81.16
69411;BME280;56604;48.652;9.194;2022-07-29T00:17:07;96166.59;;;19.18;81.04
69411;BME280;56604;48.652;9.194;2022-07-29T00:19:33;96167.41;;;19.18;81.11
69411;BME280;56604;48.652;9.194;2022-07-29T00:21:59;96171.78;;;19.14;81.18
69411;BME280;56604;48.652;9.194;2022-07-29T00:24:24;96171.16;;;19.17;80.78
69411;BME280;56604;48.652;9.194;2022-07-29T00:26:50;96170.63;;;19.06;80.91
69411;BME280;56604;48.652;9.194;2022-07-29T00:29:15;96180.66;;;19.09;80.80
69411;BME280;56604;48.652;9.194;2022-07-29T00:31:40;96166.69;;;19.04;80.38
69411;BME280;56604;48.652;9.194;2022-07-29T00:34:06;96172.50;;;18.83;81.40
69411;BME280;56604;48.652;9.194;2022-07-29T00:36:51;96166.16;;;18.93;81.21
69411;BME280;56604;48.652;9.194;2022-07-29T00:39:16;96173.50;;;18.87;81.28
69411;BME280;56604;48.652;9.194;2022-07-29T00:41:42;96172.06;;;18.81;81.74
69411;BME280;56604;48.652;9.194;2022-07-29T00:44:07;96159.97;;;18.84;81.01
69411;BME280;56604;48.652;9.194;2022-07-29T00:46:32;96163.91;;;18.86;81.14
69411;BME280;56604;48.652;9.194;2022-07-29T00:48:57;96162.47;;;18.80;81.17
69411;BME280;56604;48.652;9.194;2022-07-29T00:51:25;96158.25;;;18.79;81.07
69411;BME280;56604;48.652;9.194;2022-07-29T00:53:50;96157.75;;;18.77;80.35
69411;BME280;56604;48.652;9.194;2022-07-29T00:56:16;96161.03;;;18.74;80.64
69411;BME280;56604;48.652;9.194;2022-07-29T00:58:41;96150.94;;;18.71;80.94
69411;BME280;56604;48.652;9.194;2022-07-29T01:01:07;96152.06;;;18.70;80.86
69411;BME280;56604;48.652;9.194;2022-07-29T01:03:32;96140.53;;;18.61;80.81
69411;BME280;56604;48.652;9.194;2022-07-29T01:05:58;96146.78;;;18.56;80.82
69411;BME280;56604;48.652;9.194;2022-07-29T01:08:24;96135.34;;;18.56;80.82
69411;BME280;56604;48.652;9.194;2022-07-29T01:10:50;96135.75;;;18.49;80.99
69411;BME280;56604;48.652;9.194;2022-07-29T01:13:16;96143.16;;;18.38;81.08
69411;BME280;56604;48.652;9.194;2022-07-29T01:15:45;96139.38;;;18.31;81.13
69411;BME280;56604;48.652;9.194;2022-07-29T01:23:51;96127.28;;;18.47;80.52
69411;BME280;56604;48.652;9.194;2022-07-29T01:29:06;96128.13;;;18.34;80.97
69411;BME280;56604;48.652;9.194;2022-07-29T01:31:41;96128.13;;;18.34;80.97
69411;BME280;56604;48.652;9.194;2022-07-29T01:34:11;96133.44;;;18.34;80.86
69411;BME280;56604;48.652;9.194;2022-07-29T01:36:43;96127.94;;;18.30;80.79
69411;BME280;56604;48.652;9.194;2022-07-29T01:39:31;96135.94;;;18.30;81.05
69411;BME280;56604;48.652;9.194;2022-07-29T01:42:26;96133.28;;;18.30;80.87
69411;BME280;56604;48.652;9.194;2022-07-29T01:44:57;96134.84;;;18.31;81.03
69411;BME280;56604;48.652;9.194;2022-07-29T01:47:28;96134.34;;;18.29;80.78
69411;BME280;56604;48.652;9.194;2022-07-29T01:49:58;96135.31;;;18.33;80.66
69411;BME280;56604;48.652;9.194;2022-07-29T01:52:34;96133.28;;;18.30;80.59
69411;BME280;56604;48.652;9.194;2022-07-29T01:55:06;96135.44;;;18.28;80.77
69411;BME280;56604;48.652;9.194;2022-07-29T01:57:33;96131.31;;;18.22;81.24
69411;BME280;56604;48.652;9.194;2022-07-29T02:00:01;96128.06;;;18.25;80.68
69411;BME280;56604;48.652;9.194;2022-07-29T02:02:28;96127.94;;;18.30;80.64
69411;BME280;56604;48.652;9.194;2022-07-29T02:04:56;96126.97;;;18.26;80.90
69411;BME280;56604;48.652;9.194;2022-07-29T02:07:24;96124.19;;;18.31;80.50
69411;BME280;56604;48.652;9.194;2022-07-29T02:09:53;96118.38;;;18.29;80.13
69411;BME280;56604;48.652;9.194;2022-07-29T02:12:20;96118.25;;;18.34;80.34
69411;BME280;56604;48.652;9.194;2022-07-29T02:14:50;96116.88;;;18.37;80.59
69411;BME280;56604;48.652;9.194;2022-07-29T02:17:27;96117.66;;;18.37;80.64
69411;BME280;56604;48.652;9.194;2022-07-29T02:19:59;96118.63;;;18.41;80.42
69411;BME280;56604;48.652;9.194;2022-07-29T02:22:26;96125.75;;;18.32;80.24
69411;BME280;56604;48.652;9.194;2022-07-29T02:24:55;96120.06;;;18.25;79.47
69411;BME280;56604;48.652;9.194;2022-07-29T02:27:22;96111.00;;;18.26;80.65
69411;BME280;56604;48.652;9.194;2022-07-29T02:29:49;96116.31;;;18.26;80.52
69411;BME280;56604;48.652;9.194;2022-07-29T02:32:16;96111.91;;;18.22;80.69
69411;BME280;56604;48.652;9.194;2022-07-29T02:34:43;96112.66;;;18.00;81.49
69411;BME280;56604;48.652;9.194;2022-07-29T02:37:10;96106.53;;;17.99;81.15
69411;BME280;56604;48.652;9.194;2022-07-29T02:39:37;96106.31;;;18.09;81.14
69411;BME280;56604;48.652;9.194;2022-07-29T02:42:07;96103.38;;;18.11;81.34
69411;BME280;56604;48.652;9.194;2022-07-29T02:44:35;96098.22;;;18.14;81.02
69411;BME280;56604;48.652;9.194;2022-07-29T02:47:20;96105.91;;;18.16;80.45
69411;BME280;56604;48.652;9.194;2022-07-29T02:55:33;96107.09;;;18.10;80.60
69411;BME280;56604;48.652;9.194;2022-07-29T02:58:13;96113.22;;;18.10;80.65
69411;BME280;56604;48.652;9.194;2022-07-29T03:00:41;96107.69;;;18.07;81.20
69411;BME280;56604;48.652;9.194;2022-07-29T03:03:13;96107.09;;;18.10;80.80
69411;BME280;56604;48.652;9.194;2022-07-29T03:05:40;96107.09;;;18.10;80.41
69411;BME280;56604;48.652;9.194;2022-07-29T03:08:06;96108.38;;;18.12;80.69
69411;BME280;56604;48.652;9.194;2022-07-29T03:10:32;96107.28;;;18.13;80.44
69411;BME280;56604;48.652;9.194;2022-07-29T03:13:00;96106.91;;;18.06;80.63
69411;BME280;56604;48.652;9.194;2022-07-29T03:15:25;96109.50;;;17.97;81.04
69411;BME280;56604;48.652;9.194;2022-07-29T03:17:52;96103.56;;;18.01;81.22
69411;BME280;56604;48.652;9.194;2022-07-29T03:20:18;96102.78;;;18.00;81.36
69411;BME280;56604;48.652;9.194;2022-07-29T03:22:44;96101.63;;;17.92;81.81
69411;BME280;56604;48.652;9.194;2022-07-29T03:25:13;96105.38;;;17.91;82.11
69411;BME280;56604;48.652;9.194;2022-07-29T03:27:40;96108.91;;;18.01;81.30
69411;BME280;56604;48.652;9.194;2022-07-29T03:30:06;96111.47;;;17.92;81.90
69411;BME280;56604;48.652;9.194;2022-07-29T03:32:33;96108.53;;;17.93;81.71
69411;BME280;56604;48.652;9.194;2022-07-29T03:34:58;96113.84;;;17.93;81.77
69411;BME280;56604;48.652;9.194;2022-07-29T03:37:24;96114.31;;;17.95;82.28
69411;BME280;56604;48.652;9.194;2022-07-29T03:39:50;96113.47;;;17.86;81.93
69411;BME280;56604;48.652;9.194;2022-07-29T03:42:19;96114.44;;;17.90;81.58
69411;BME280;56604;48.652;9.194;2022-07-29T03:44:47;96119.28;;;17.88;81.85
69411;BME280;56604;48.652;9.194;2022-07-29T03:47:14;96124.59;;;17.88;82.15
69411;BME280;56604;48.652;9.194;2022-07-29T03:49:40;96119.16;;;17.93;81.90
69411;BME280;56604;48.652;9.194;2022-07-29T03:52:07;96124.00;;;17.91;81.86
69411;BME280;56604;48.652;9.194;2022-07-29T03:54:33;96128.81;;;17.89;81.91
69411;BME280;56604;48.652;9.194;2022-07-29T03:57:01;96129.41;;;17.86;82.15
69411;BME280;56604;48.652;9.194;2022-07-29T03:59:27;96123.50;;;17.89;81.93
69411;BME280;56604;48.652;9.194;2022-07-29T04:01:55;96125.47;;;17.84;81.85
69411;BME280;56604;48.652;9.194;2022-07-29T04:04:21;96127.84;;;17.85;81.78
69411;BME280;56604;48.652;9.194;2022-07-29T04:06:47;96135.22;;;17.88;81.52
69411;BME280;56604;48.652;9.194;2022-07-29T04:09:12;96133.16;;;17.99;81.04
69411;BME280;56604;48.652;9.194;2022-07-29T04:11:40;96130.44;;;18.13;80.53
69411;BME280;56604;48.652;9.194;2022-07-29T04:14:05;96129.19;;;18.10;79.91
69411;BME280;56604;48.652;9.194;2022-07-29T04:16:31;96131.31;;;18.22;79.98
69411;BME280;56604;48.652;9.194;2022-07-29T04:18:56;96141.34;;;18.25;79.20
69411;BME280;56604;48.652;9.194;2022-07-29T04:21:22;96136.00;;;18.39;78.67
69411;BME280;56604;48.652;9.194;2022-07-29T04:23:47;96140.34;;;18.35;78.95
69411;BME280;56604;48.652;9.194;2022-07-29T04:26:18;96133.63;;;18.37;78.38
69411;BME280;56604;48.652;9.194;2022-07-29T04:28:44;96130.97;;;18.60;77.91
69411;BME280;56604;48.652;9.194;2022-07-29T04:31:11;96130.63;;;18.75;77.37
69411;BME280;56604;48.652;9.194;2022-07-29T04:33:37;96133.28;;;18.75;77.04
69411;BME280;56604;48.652;9.194;2022-07-29T04:36:03;96137.25;;;19.09;75.83
69411;BME280;56604;48.652;9.194;2022-07-29T04:38:28;96130.19;;;19.36;74.33
69411;BME280;56604;48.652;9.194;2022-07-29T04:40:53;96138.94;;;19.67;72.76
69411;BME280;56604;48.652;9.194;2022-07-29T04:43:19;96134.44;;;19.94;72.11
69411;BME280;56604;48.652;9.194;2022-07-29T04:45:44;96138.75;;;20.56;70.12
69411;BME280;56604;48.652;9.194;2022-07-29T04:48:10;96133.28;;;21.64;66.33
69411;BME280;56604;48.652;9.194;2022-07-29T04:50:38;96133.63;;;21.92;64.85
69411;BME280;56604;48.652;9.194;2022-07-29T04:53:03;96139.34;;;21.82;64.83
69411;BME280;56604;48.652;9.194;2022-07-29T04:55:28;96140.47;;;21.42;66.30
69411;BME280;56604;48.652;9.194;2022-07-29T04:57:54;96144.34;;;21.06;67.58
69411;BME280;56604;48.652;9.194;2022-07-29T05:00:19;96134.47;;;21.45;66.73
69411;BME280;56604;48.652;9.194;2022-07-29T05:02:44;96133.41;;;21.97;64.42
69411;BME280;56604;48.652;9.194;2022-07-29T05:05:10;96129.53;;;22.36;63.66
69411;BME280;56604;48.652;9.194;2022-07-29T05:07:35;96130.78;;;22.18;62.94
69411;BME280;56604;48.652;9.194;2022-07-29T05:10:00;96131.09;;;22.92;62.79
69411;BME280;56604;48.652;9.194;2022-07-29T05:12:26;96133.25;;;23.81;58.33
69411;BME280;56604;48.652;9.194;2022-07-29T05:14:52;96138.22;;;24.19;58.39
69411;BME280;56604;48.652;9.194;2022-07-29T05:17:55;96137.25;;;24.64;56.72
69411;BME280;56604;48.652;9.194;2022-07-29T05:20:21;96137.59;;;25.06;55.35
69411;BME280;56604;48.652;9.194;2022-07-29T05:22:51;96127.06;;;25.93;52.97
69411;BME280;56604;48.652;9.194;2022-07-29T05:25:16;96133.97;;;26.29;51.94
69411;BME280;56604;48.652;9.194;2022-07-29T05:27:41;96130.53;;;26.67;50.23
69411;BME280;56604;48.652;9.194;2022-07-29T05:30:07;96131.84;;;26.97;49.83
69411;BME280;56604;48.652;9.194;2022-07-29T05:32:32;96147.94;;;26.51;50.91
69411;BME280;56604;48.652;9.194;2022-07-29T05:34:58;96146.69;;;25.93;52.55
69411;BME280;56604;48.652;9.194;2022-07-29T05:37:23;96154.22;;;25.24;53.18
69411;BME280;56604;48.652;9.194;2022-07-29T05:39:50;96156.41;;;24.62;55.70
69411;BME280;56604;48.652;9.194;2022-07-29T05:42:21;96153.31;;;24.36;56.31
69411;BME280;56604;48.652;9.194;2022-07-29T05:44:46;96155.59;;;25.18;54.30
69411;BME280;56604;48.652;9.194;2022-07-29T05:47:14;96149.63;;;26.78;50.68
69411;BME280;56604;48.652;9.194;2022-07-29T05:49:39;96157.72;;;26.23;50.84
69411;BME280;56604;48.652;9.194;2022-07-29T05:52:05;96151.28;;;26.28;51.21
69411;BME280;56604;48.652;9.194;2022-07-29T05:54:30;96155.31;;;26.73;49.75
69411;BME280;56604;48.652;9.194;2022-07-29T05:56:56;96154.22;;;26.39;51.50
69411;BME280;56604;48.652;9.194;2022-07-29T05:59:21;96155.41;;;27.19;49.14
69411;BME280;56604;48.652;9.194;2022-07-29T06:01:46;96153.50;;;27.43;48.22
69411;BME280;56604;48.652;9.194;2022-07-29T06:04:11;96162.31;;;27.86;47.37
69411;BME280;56604;48.652;9.194;2022-07-29T06:06:37;96162.97;;;26.71;50.06
69411;BME280;56604;48.652;9.194;2022-07-29T06:09:03;96164.25;;;25.87;52.23
69411;BME280;56604;48.652;9.194;2022-07-29T06:11:28;96164.41;;;26.49;51.22
69411;BME280;56604;48.652;9.194;2022-07-29T06:13:54;96162.22;;;27.13;48.92
69411;BME280;56604;48.652;9.194;2022-07-29T06:16:19;96170.31;;;27.13;48.97
69411;BME280;56604;48.652;9.194;2022-07-29T06:18:51;96167.66;;;26.74;50.45
69411;BME280;56604;48.652;9.194;2022-07-29T06:21:26;96170.44;;;27.40;48.91
69411;BME280;56604;48.652;9.194;2022-07-29T06:23:51;96169.19;;;28.33;46.23
69411;BME280;56604;48.652;9.194;2022-07-29T06:26:17;96176.16;;;28.37;46.19
69411;BME280;56604;48.652;9.194;2022-07-29T06:28:42;96172.34;;;29.02;44.96
69411;BME280;56604;48.652;9.194;2022-07-29T06:31:11;96172.41;;;29.43;45.21
69411;BME280;56604;48.652;9.194;2022-07-29T06:33:36;96171.22;;;29.85;43.06
69411;BME280;56604;48.652;9.194;2022-07-29T06:36:04;96183.47;;;29.68;43.48
69411;BME280;56604;48.652;9.194;2022-07-29T06:38:30;96174.06;;;30.07;42.75
69411;BME280;56604;48.652;9.194;2022-07-29T06:40:55;96174.19;;;31.05;41.49
69411;BME280;56604;48.652;9.194;2022-07-29T06:43:39;96177.81;;;30.46;41.12
69411;BME280;56604;48.652;9.194;2022-07-29T06:46:08;96181.16;;;30.99;41.09
69411;BME280;56604;48.652;9.194;2022-07-29T06:48:34;96177.41;;;31.50;39.95
69411;BME280;56604;48.652;9.194;2022-07-29T06:51:05;96178.19;;;31.68;39.77
69411;BME280;56604;48.652;9.194;2022-07-29T06:53:31;96189.84;;;29.90;42.18
69411;BME280;56604;48.652;9.194;2022-07-29T06:55:57;96186.00;;;29.50;43.82
69411;BME280;56604;48.652;9.194;2022-07-29T06:58:24;96178.75;;;30.79;41.46
69411;BME280;56604;48.652;9.194;2022-07-29T07:00:51;96191.28;;;29.77;44.35
69411;BME280;56604;48.652;9.194;2022-07-29T07:03:19;96193.69;;;30.37;41.49
69411;BME280;56604;48.652;9.194;2022-07-29T07:05:45;96187.78;;;29.32;44.04
69411;BME280;56604;48.652;9.194;2022-07-29T07:08:11;96198.47;;;28.57;45.87
69411;BME280;56604;48.652;9.194;2022-07-29T07:10:37;96194.56;;;27.98;47.19
69411;BME280;56604;48.652;9.194;2022-07-29T07:13:03;96198.00;;;28.21;46.87
69411;BME280;56604;48.652;9.194;2022-07-29T07:15:32;96198.19;;;29.30;44.88
69411;BME280;56604;48.652;9.194;2022-07-29T07:17:59;96204.38;;;29.68;44.63
69411;BME280;56604;48.652;9.194;2022-07-29T07:20:25;96203.09;;;29.54;44.15
69411;BME280;56604;48.652;9.194;2022-07-29T07:22:50;96205.78;;;29.54;43.93
69411;BME280;56604;48.652;9.194;2022-07-29T07:25:15;96204.19;;;28.79;45.76
69411;BME280;56604;48.652;9.194;2022-07-29T07:27:44;96210.84;;;29.19;46.24
69411;BME280;56604;48.652;9.194;2022-07-29T07:30:10;96205.06;;;28.86;45.91
69411;BME280;56604;48.652;9.194;2022-07-29T07:32:36;96210.88;;;28.05;48.55
69411;BME280;56604;48.652;9.194;2022-07-29T07:35:04;96207.34;;;28.28;48.79
69411;BME280;56604;48.652;9.194;2022-07-29T07:37:29;96204.66;;;29.59;44.75
69411;BME280;56604;48.652;9.194;2022-07-29T07:39:56;96212.38;;;30.01;43.59
69411;BME280;56604;48.652;9.194;2022-07-29T07:42:21;96206.56;;;32.03;40.84
69411;BME280;56604;48.652;9.194;2022-07-29T07:44:47;96199.91;;;31.50;41.23
69411;BME280;56604;48.652;9.194;2022-07-29T07:47:14;96213.66;;;30.77;41.00
69411;BME280;56604;48.652;9.194;2022-07-29T07:49:40;96209.25;;;31.89;39.36
69411;BME280;56604;48.652;9.194;2022-07-29T07:52:05;96206.09;;;32.44;38.96
69411;BME280;56604;48.652;9.194;2022-07-29T07:54:31;96204.63;;;31.93;38.53
69411;BME280;56604;48.652;9.194;2022-07-29T07:57:01;96210.81;;;32.04;38.81
69411;BME280;56604;48.652;9.194;2022-07-29T07:59:27;96201.41;;;31.26;40.97
69411;BME280;56604;48.652;9.194;2022-07-29T08:01:54;96209.16;;;31.28;40.73
69411;BME280;56604;48.652;9.194;2022-07-29T08:04:20;96219.63;;;28.21;45.70
69411;BME280;56604;48.652;9.194;2022-07-29T08:06:46;96208.31;;;30.99;41.83
69411;BME280;56604;48.652;9.194;2022-07-29T08:09:12;96208.34;;;31.09;42.38
69411;BME280;56604;48.652;9.194;2022-07-29T08:11:37;96218.22;;;32.14;38.64
69411;BME280;56604;48.652;9.194;2022-07-29T08:14:03;96219.84;;;33.25;38.10
69411;BME280;56604;48.652;9.194;2022-07-29T08:16:28;96217.41;;;33.97;36.63
69411;BME280;56604;48.652;9.194;2022-07-29T08:18:53;96220.00;;;34.15;35.38
69411;BME280;56604;48.652;9.194;2022-07-29T08:21:23;96209.56;;;33.47;36.09
69411;BME280;56604;48.652;9.194;2022-07-29T08:23:49;96211.88;;;33.55;36.17
69411;BME280;56604;48.652;9.194;2022-07-29T08:26:17;96213.91;;;32.13;39.34
69411;BME280;56604;48.652;9.194;2022-07-29T08:28:44;96207.66;;;32.52;39.00
69411;BME280;56604;48.652;9.194;2022-07-29T08:31:11;96218.56;;;32.52;38.04
69411;BME280;56604;48.652;9.194;2022-07-29T08:33:37;96220.88;;;32.50;36.71
69411;BME280;56604;48.652;9.194;2022-07-29T08:36:03;96205.84;;;33.23;36.29
69411;BME280;56604;48.652;9.194;2022-07-29T08:38:28;96212.81;;;33.90;35.16
69411;BME280;56604;48.652;9.194;2022-07-29T08:40:54;96209.78;;;33.14;36.62
69411;BME280;56604;48.652;9.194;2022-07-29T08:43:19;96212.31;;;34.02;34.91
69411;BME280;56604;48.652;9.194;2022-07-29T08:45:47;96214.25;;;34.47;34.13
69411;BME280;56604;48.652;9.194;2022-07-29T08:48:20;96216.94;;;34.13;34.02
69411;BME280;56604;48.652;9.194;2022-07-29T08:50:47;96218.56;;;31.70;38.33
69411;BME280;56604;48.652;9.194;2022-07-29T08:53:15;96214.00;;;33.26;35.70
69411;BME280;56604;48.652;9.194;2022-07-29T08:55:48;96206.88;;;32.62;37.94
69411;BME280;56604;48.652;9.194;2022-07-29T08:58:15;96214.41;;;33.25;35.20
69411;BME280;56604;48.652;9.194;2022-07-29T09:00:44;96218.41;;;33.02;34.68
69411;BME280;56604;48.652;9.194;2022-07-29T09:03:12;96223.66;;;32.07;35.98
69411;BME280;56604;48.652;9.194;2022-07-29T09:05:43;96224.59;;;30.99;37.35
69411;BME280;56604;48.652;9.194;2022-07-29T09:08:10;96225.91;;;30.50;39.85
69411;BME280;56604;48.652;9.194;2022-07-29T09:10:36;96222.50;;;32.08;37.92
69411;BME280;56604;48.652;9.194;2022-07-29T09:13:02;96230.22;;;32.49;37.36
69411;BME280;56604;48.652;9.194;2022-07-29T09:15:28;96220.69;;;33.77;35.00
69411;BME280;56604;48.652;9.194;2022-07-29T09:17:53;96222.28;;;33.08;35.67
69411;BME280;56604;48.652;9.194;2022-07-29T09:20:22;96222.94;;;33.30;34.98
69411;BME280;56604;48.652;9.194;2022-07-29T09:22:48;96220.09;;;32.60;35.23
69411;BME280;56604;48.652;9.194;2022-07-29T09:25:33;96228.34;;;30.69;38.96
69411;BME280;56604;48.652;9.194;2022-07-29T09:28:12;96216.66;;;31.77;37.40
69411;BME280;56604;48.652;9.194;2022-07-29T09:30:55;96223.25;;;31.62;37.83
69411;BME280;56604;48.652;9.194;2022-07-29T09:33:22;96211.56;;;32.37;37.70
69411;BME280;56604;48.652;9.194;2022-07-29T09:36:02;96198.91;;;33.74;35.32
69411;BME280;56604;48.652;9.194;2022-07-29T09:38:29;96197.94;;;33.95;34.83
69411;BME280;56604;48.652;9.194;2022-07-29T09:41:03;96207.66;;;33.47;34.53
69411;BME280;56604;48.652;9.194;2022-07-29T09:43:29;96208.66;;;33.71;33.96
69411;BME280;56604;48.652;9.194;2022-07-29T09:45:55;96202.63;;;32.47;34.84
69411;BME280;56604;48.652;9.194;2022-07-29T09:48:24;96205.38;;;31.83;36.12
69411;BME280;56604;48.652;9.194;2022-07-29T09:50:51;96204.50;;;31.18;37.94
69411;BME280;56604;48.652;9.194;2022-07-29T09:53:37;96203.72;;;31.24;37.96
69411;BME280;56604;48.652;9.194;2022-07-29T09:56:04;96216.50;;;30.33;40.41
69411;BME280;56604;48.652;9.194;2022-07-29T09:58:29;96215.97;;;29.65;40.40
69411;BME280;56604;48.652;9.194;2022-07-29T10:00:55;96204.59;;;29.96;39.90
69411;BME280;56604;48.652;9.194;2022-07-29T10:03:22;96212.78;;;30.03;40.31
69411;BME280;56604;48.652;9.194;2022-07-29T10:06:07;96208.16;;;30.63;39.27
69411;BME280;56604;48.652;9.194;2022-07-29T10:08:34;96193.31;;;31.55;37.94
69411;BME280;56604;48.652;9.194;2022-07-29T10:11:13;96202.16;;;31.16;37.12
69411;BME280;56604;48.652;9.194;2022-07-29T10:13:41;96199.13;;;31.50;37.40
69411;BME280;56604;48.652;9.194;2022-07-29T10:16:07;96201.41;;;31.33;37.55
69411;BME280;56604;48.652;9.194;2022-07-29T10:18:33;96193.41;;;30.64;38.36
69411;BME280;56604;48.652;9.194;2022-07-29T10:20:59;96193.03;;;30.03;39.68
69411;BME280;56604;48.652;9.194;2022-07-29T10:23:28;96198.28;;;29.81;40.82
69411;BME280;56604;48.652;9.194;2022-07-29T10:25:54;96186.38;;;30.48;38.38
69411;BME280;56604;48.652;9.194;2022-07-29T10:28:19;96187.84;;;30.35;39.68
69411;BME280;56604;48.652;9.194;2022-07-29T10:30:45;96184.66;;;31.03;38.32
69411;BME280;56604;48.652;9.194;2022-07-29T10:36:32;96178.19;;;32.11;35.79
69411;BME280;56604;48.652;9.194;2022-07-29T10:42:20;96172.38;;;33.22;34.22
69411;BME280;56604;48.652;9.194;2022-07-29T10:44:48;96173.91;;;31.42;37.46
69411;BME280;56604;48.652;9.194;2022-07-29T10:47:25;96177.19;;;29.61;40.50
69411;BME280;56604;48.652;9.194;2022-07-29T10:50:03;96166.44;;;28.93;41.13
69411;BME280;56604;48.652;9.194;2022-07-29T10:52:56;96162.69;;;28.67;40.63
69411;BME280;56604;48.652;9.194;2022-07-29T10:58:17;96167.44;;;28.78;42.02
69411;BME280;56604;48.652;9.194;2022-07-29T11:00:44;96171.06;;;28.89;40.79
69411;BME280;56604;48.652;9.194;2022-07-29T11:03:47;96184.16;;;28.87;40.95
69411;BME280;56604;48.652;9.194;2022-07-29T11:06:17;96195.78;;;28.31;41.90
69411;BME280;56604;48.652;9.194;2022-07-29T11:08:42;96190.00;;;28.89;41.82
69411;BME280;56604;48.652;9.194;2022-07-29T11:13:47;96189.38;;;28.12;42.74
69411;BME280;56604;48.652;9.194;2022-07-29T11:16:16;96205.50;;;27.82;42.95
69411;BME280;56604;48.652;9.194;2022-07-29T11:21:36;96220.13;;;26.77;46.97
69411;BME280;56604;48.652;9.194;2022-07-29T11:24:25;96228.25;;;26.25;49.68
69411;BME280;56604;48.652;9.194;2022-07-29T11:27:18;96243.06;;;25.12;55.22
69411;BME280;56604;48.652;9.194;2022-07-29T11:29:48;96248.25;;;24.28;59.26
69411;BME280;56604;48.652;9.194;2022-07-29T11:32:15;96258.00;;;23.95;61.09
69411;BME280;56604;48.652;9.194;2022-07-29T11:34:43;96258.47;;;23.52;62.71
69411;BME280;56604;48.652;9.194;2022-07-29T11:39:39;96270.03;;;22.48;66.90
69411;BME280;56604;48.652;9.194;2022-07-29T11:45:09;96295.91;;;21.58;61.26
69411;BME280;56604;48.652;9.194;2022-07-29T11:47:41;96288.06;;;21.18;63.78
69411;BME280;56604;48.652;9.194;2022-07-29T11:50:11;96278.13;;;21.53;65.45
69411;BME280;56604;48.652;9.194;2022-07-29T11:52:42;96271.84;;;21.49;67.08
69411;BME280;56604;48.652;9.194;2022-07-29T11:55:13;96264.03;;;21.74;64.12
69411;BME280;56604;48.652;9.194;2022-07-29T11:57:49;96263.72;;;22.14;63.77
69411;BME280;56604;48.652;9.194;2022-07-29T12:02:51;96244.53;;;22.12;61.70
69411;BME280;56604;48.652;9.194;2022-07-29T12:05:18;96252.94;;;22.31;61.91
69411;BME280;56604;48.652;9.194;2022-07-29T12:07:43;96249.13;;;22.02;61.42
69411;BME280;56604;48.652;9.194;2022-07-29T12:10:09;96246.31;;;22.37;62.10
69411;BME280;56604;48.652;9.194;2022-07-29T12:12:35;96250.63;;;22.51;60.75
69411;BME280;56604;48.652;9.194;2022-07-29T12:15:17;96246.31;;;22.37;61.47
69411;BME280;56604;48.652;9.194;2022-07-29T12:17:46;96246.00;;;22.60;61.30
69411;BME280;56604;48.652;9.194;2022-07-29T12:20:12;96241.59;;;22.34;64.01
69411;BME280;56604;48.652;9.194;2022-07-29T12:22:41;96236.25;;;22.34;65.01
69411;BME280;56604;48.652;9.194;2022-07-29T12:25:14;96240.16;;;22.37;66.23
69411;BME280;56604;48.652;9.194;2022-07-29T12:27:41;96237.53;;;22.28;66.52
69411;BME280;56604;48.652;9.194;2022-07-29T12:30:14;96238.00;;;21.92;65.78
69411;BME280;56604;48.652;9.194;2022-07-29T12:32:46;96237.53;;;22.28;66.03
69411;BME280;56604;48.652;9.194;2022-07-29T12:35:17;96235.69;;;22.20;67.78
69411;BME280;56604;48.652;9.194;2022-07-29T12:37:49;96247.19;;;21.73;70.13
69411;BME280;56604;48.652;9.194;2022-07-29T12:40:17;96235.81;;;21.85;67.19
69411;BME280;56604;48.652;9.194;2022-07-29T12:43:14;96227.47;;;21.40;69.74
69411;BME280;56604;48.652;9.194;2022-07-29T12:45:45;96210.50;;;21.74;69.22
69411;BME280;56604;48.652;9.194;2022-07-29T12:48:12;96223.66;;;21.58;66.59
69411;BME280;56604;48.652;9.194;2022-07-29T12:50:56;96224.03;;;21.22;65.33
69411;BME280;56604;48.652;9.194;2022-07-29T12:53:22;96223.38;;;21.25;66.50
69411;BME280;56604;48.652;9.194;2022-07-29T12:55:49;96207.13;;;21.94;64.99
69411;BME280;56604;48.652;9.194;2022-07-29T12:58:38;96219.41;;;21.95;67.40
69411;BME280;56604;48.652;9.194;2022-07-29T13:01:11;96212.88;;;22.05;66.32
69411;BME280;56604;48.652;9.194;2022-07-29T13:03:44;96210.50;;;22.12;65.12
69411;BME280;56604;48.652;9.194;2022-07-29T13:09:16;96223.97;;;22.54;65.37
69411;BME280;56604;48.652;9.194;2022-07-29T13:11:47;96229.56;;;22.82;65.11
69411;BME280;56604;48.652;9.194;2022-07-29T13:14:29;96236.91;;;22.94;64.69
69411;BME280;56604;48.652;9.194;2022-07-29T13:17:07;96250.78;;;22.54;68.12
69411;BME280;56604;48.652;9.194;2022-07-29T13:22:00;96247.53;;;21.72;68.06
69411;BME280;56604;48.652;9.194;2022-07-29T13:24:25;96254.97;;;21.58;66.25
69411;BME280;56604;48.652;9.194;2022-07-29T13:26:50;96262.38;;;21.99;68.58
69411;BME280;56604;48.652;9.194;2022-07-29T13:29:17;96245.09;;;21.88;68.32
69411;BME280;56604;48.652;9.194;2022-07-29T13:31:42;96254.63;;;21.68;68.15
69411;BME280;56604;48.652;9.194;2022-07-29T13:34:08;96265.22;;;21.47;69.30
69411;BME280;56604;48.652;9.194;2022-07-29T13:36:33;96258.91;;;21.60;69.25
69411;BME280;56604;48.652;9.194;2022-07-29T13:38:58;96252.31;;;21.40;68.17
69411;BME280;56604;48.652;9.194;2022-07-29T13:41:24;96244.66;;;21.77;68.04
69411;BME280;56604;48.652;9.194;2022-07-29T13:43:49;96240.31;;;22.02;66.99
69411;BME280;56604;48.652;9.194;2022-07-29T13:46:14;96246.22;;;22.16;68.54
69411;BME280;56604;48.652;9.194;2022-07-29T13:48:40;96238.13;;;22.34;66.78